Time;durP1;ratioP1;P1;durP2;ratioP2;P2;SDS_P1;SDS_P2;PMS_P1;PMS_P2;Temp;Humidity;BMP_temperature;BMP_pressure;BME280_temperature;BME280_humidity;BME280_pressure;Samples;Min_cycle;Max_cycle;Signal;HPM_P1;HPM_P2
2022/03/07 00:01:04;;;;;;;4.33;3.23;;;;;;;-145.14;100.00;70583.66;5001261;28;20282;-69
2022/03/07 00:03:29;;;;;;;5.73;3.40;;;;;;;-145.14;100.00;70583.66;4997287;28;20252;-70
2022/03/07 00:05:55;;;;;;;5.43;3.40;;;;;;;-145.14;100.00;70583.66;4994235;28;20997;-69
2022/03/07 00:08:21;;;;;;;5.33;3.03;;;;;;;-145.14;100.00;70583.66;4998827;28;20193;-69
2022/03/07 00:10:46;;;;;;;4.10;2.83;;;;;;;-145.14;100.00;70583.66;4998538;28;20211;-69
2022/03/07 00:13:12;;;;;;;8.47;4.03;;;;;;;-145.14;100.00;70583.66;4996454;28;20193;-69
2022/03/07 00:15:38;;;;;;;5.47;3.47;;;;;;;-145.14;100.00;70583.66;4990354;28;20690;-69
2022/03/07 00:18:03;;;;;;;4.70;3.20;;;;;;;-145.14;100.00;70583.66;4994961;28;21034;-69
2022/03/07 00:20:30;;;;;;;5.03;3.53;;;;;;;-145.14;100.00;70583.66;4992469;28;21063;-70
2022/03/07 00:22:55;;;;;;;5.80;3.97;;;;;;;-145.14;100.00;70583.66;4995973;28;20187;-69
2022/03/07 00:25:21;;;;;;;7.70;4.07;;;;;;;-145.14;100.00;70583.66;4994157;28;20448;-69
2022/03/07 00:27:46;;;;;;;4.20;3.50;;;;;;;-145.14;100.00;70583.66;4993879;28;20562;-69
2022/03/07 00:30:12;;;;;;;6.77;4.63;;;;;;;-145.14;100.00;70583.66;4990045;28;20212;-68
2022/03/07 00:32:37;;;;;;;5.17;4.23;;;;;;;-145.14;100.00;70583.66;4993636;28;20189;-69
2022/03/07 00:35:03;;;;;;;6.00;4.53;;;;;;;-145.14;100.00;70583.66;4997598;28;20323;-69
2022/03/07 00:37:30;;;;;;;5.93;5.33;;;;;;;-145.14;100.00;70583.66;4993208;28;20700;-69
2022/03/07 00:39:56;;;;;;;7.67;5.00;;;;;;;-145.14;100.00;70583.66;4998321;28;20248;-69
2022/03/07 00:42:21;;;;;;;7.63;4.70;;;;;;;-145.14;100.00;70583.66;4998957;28;20455;-69
2022/03/07 00:44:47;;;;;;;4.10;3.80;;;;;;;-145.14;100.00;70583.66;4998440;28;20185;-69
2022/03/07 00:47:12;;;;;;;6.03;4.50;;;;;;;-145.14;100.00;70583.66;4992348;28;20428;-69
2022/03/07 00:49:38;;;;;;;8.20;4.97;;;;;;;-145.14;100.00;70583.66;4993737;28;20189;-69
2022/03/07 00:52:04;;;;;;;7.10;4.80;;;;;;;-145.14;100.00;70583.66;4999375;28;20630;-69
2022/03/07 00:54:29;;;;;;;5.03;4.43;;;;;;;-145.14;100.00;70583.66;4995145;28;20295;-69
2022/03/07 00:56:54;;;;;;;7.80;5.10;;;;;;;-145.14;100.00;70583.66;4998114;28;20241;-69
2022/03/07 00:59:20;;;;;;;6.33;4.80;;;;;;;-145.14;100.00;70583.66;4992843;28;20673;-69
2022/03/07 01:01:46;;;;;;;7.67;4.83;;;;;;;-145.14;100.00;70583.66;4990891;28;20284;-69
2022/03/07 01:04:11;;;;;;;6.57;4.57;;;;;;;-145.14;100.00;70583.66;4989412;28;20437;-69
2022/03/07 01:06:37;;;;;;;6.40;5.03;;;;;;;-145.14;100.00;70583.66;4993443;28;21025;-69
2022/03/07 01:09:02;;;;;;;9.80;4.83;;;;;;;-145.14;100.00;70583.66;4995774;28;20186;-69
2022/03/07 01:11:29;;;;;;;5.60;4.80;;;;;;;-145.14;100.00;70583.66;4991477;28;20212;-69
2022/03/07 01:13:54;;;;;;;8.20;5.67;;;;;;;-145.14;100.00;70583.66;4997828;28;20195;-69
2022/03/07 01:16:20;;;;;;;5.73;4.60;;;;;;;-145.14;100.00;70583.66;4994288;28;20467;-69
2022/03/07 01:18:45;;;;;;;7.20;4.60;;;;;;;-145.14;100.00;70583.66;4994406;28;20193;-69
2022/03/07 01:21:12;;;;;;;6.80;4.73;;;;;;;-145.14;100.00;70583.66;4991205;28;20745;-69
2022/03/07 01:23:38;;;;;;;4.77;4.17;;;;;;;-145.14;100.00;70583.66;4987377;28;21522;-69
2022/03/07 01:26:03;;;;;;;5.00;4.10;;;;;;;-145.14;100.00;70583.66;4995931;28;21135;-69
2022/03/07 01:28:30;;;;;;;5.53;4.10;;;;;;;-145.14;100.00;70583.66;4997372;28;20671;-69
2022/03/07 01:30:55;;;;;;;10.07;4.07;;;;;;;-145.14;100.00;70583.66;4990417;28;20439;-69
2022/03/07 01:33:21;;;;;;;6.67;3.83;;;;;;;-145.14;100.00;70583.66;4998849;28;20283;-70
2022/03/07 01:38:19;;;;;;;6.57;3.90;;;;;;;-145.14;100.00;70583.66;4992375;28;20279;-85
2022/03/07 01:40:45;;;;;;;4.40;3.87;;;;;;;-145.14;100.00;70583.66;4996040;28;20472;-85
2022/03/07 01:43:11;;;;;;;3.90;3.37;;;;;;;-145.14;100.00;70583.66;4998373;28;20181;-86
2022/03/07 01:45:41;;;;;;;11.10;3.77;;;;;;;-145.14;100.00;70583.66;4990003;28;20440;-86
2022/03/07 01:48:06;;;;;;;4.43;3.80;;;;;;;-145.14;100.00;70583.66;4993319;28;20491;-87
2022/03/07 01:50:32;;;;;;;5.63;3.97;;;;;;;-145.14;100.00;70583.66;4996790;28;20478;-86
2022/03/07 01:52:58;;;;;;;4.80;3.93;;;;;;;-145.14;100.00;70583.66;4997724;28;20226;-86
2022/03/07 01:55:23;;;;;;;7.97;3.73;;;;;;;-145.14;100.00;70583.66;4995171;28;20189;-88
2022/03/07 01:57:51;;;;;;;6.27;4.23;;;;;;;-145.14;100.00;70583.66;4993447;28;20583;-88
2022/03/07 02:00:19;;;;;;;6.47;3.97;;;;;;;-145.14;100.00;70583.66;4991405;28;20296;-87
2022/03/07 02:02:45;;;;;;;4.33;3.43;;;;;;;-145.14;100.00;70583.66;4997761;28;20442;-86
2022/03/07 02:05:12;;;;;;;3.47;3.10;;;;;;;-145.14;100.00;70583.66;4997046;28;20444;-86
2022/03/07 02:07:40;;;;;;;8.40;4.07;;;;;;;-145.14;100.00;70583.66;4994504;28;21110;-87
2022/03/07 02:10:08;;;;;;;5.00;3.50;;;;;;;-145.14;100.00;70583.66;4994949;28;20476;-87
2022/03/07 02:12:34;;;;;;;5.10;3.13;;;;;;;-145.14;100.00;70583.66;4997188;28;20597;-88
2022/03/07 02:14:59;;;;;;;8.13;3.80;;;;;;;-145.14;100.00;70583.66;4991284;28;20898;-86
2022/03/07 02:17:25;;;;;;;3.60;2.47;;;;;;;-145.14;100.00;70583.66;4998184;28;20300;-87
2022/03/07 02:19:50;;;;;;;5.33;3.27;;;;;;;-145.14;100.00;70583.66;4999446;28;20193;-89
2022/03/07 02:22:16;;;;;;;5.20;2.77;;;;;;;-145.14;100.00;70583.66;5000022;28;20272;-88
2022/03/07 02:24:43;;;;;;;3.30;2.73;;;;;;;-145.14;100.00;70583.66;4995305;28;20185;-88
2022/03/07 02:27:10;;;;;;;3.50;2.90;;;;;;;-145.14;100.00;70583.66;4996332;28;20212;-87
2022/03/07 02:29:36;;;;;;;5.40;3.13;;;;;;;-145.14;100.00;70583.66;4994731;28;20439;-88
2022/03/07 02:32:06;;;;;;;3.90;2.60;;;;;;;-145.14;100.00;70583.66;4994454;28;25620;-88
2022/03/07 02:34:32;;;;;;;3.90;3.03;;;;;;;-145.14;100.00;70583.66;4997930;28;20464;-86
2022/03/07 02:36:58;;;;;;;6.03;2.90;;;;;;;-145.14;100.00;70583.66;4996416;28;20510;-87
2022/03/07 02:39:23;;;;;;;3.70;2.83;;;;;;;-145.14;100.00;70583.66;4999884;28;20227;-87
2022/03/07 02:41:49;;;;;;;3.77;2.57;;;;;;;-145.14;100.00;70583.66;4998335;28;20205;-88
2022/03/07 02:44:15;;;;;;;4.90;3.10;;;;;;;-145.14;100.00;70583.66;5000554;28;20332;-88
2022/03/07 02:46:41;;;;;;;10.00;3.40;;;;;;;-145.14;100.00;70583.66;4994819;28;20197;-88
2022/03/07 02:49:07;;;;;;;8.13;3.30;;;;;;;-145.14;100.00;70583.66;4998393;28;20447;-89
2022/03/07 02:51:34;;;;;;;5.60;3.10;;;;;;;-145.14;100.00;70583.66;5001705;28;20458;-87
2022/03/07 02:53:59;;;;;;;7.23;3.30;;;;;;;-145.14;100.00;70583.66;5000413;28;20522;-89
2022/03/07 02:56:25;;;;;;;4.90;3.10;;;;;;;-145.14;100.00;70583.66;5000544;28;21035;-89
2022/03/07 02:58:51;;;;;;;4.53;3.40;;;;;;;-145.14;100.00;70583.66;5000705;28;20442;-88
2022/03/07 03:01:16;;;;;;;3.73;2.90;;;;;;;-145.14;100.00;70583.66;5005992;28;20208;-90
2022/03/07 03:03:42;;;;;;;5.50;3.00;;;;;;;-145.14;100.00;70583.66;5003932;28;20440;-89
2022/03/07 03:06:07;;;;;;;6.70;3.43;;;;;;;-145.14;100.00;70583.66;5005669;28;20213;-89
2022/03/07 03:08:33;;;;;;;2.80;2.60;;;;;;;-145.14;100.00;70583.66;5015590;28;20264;-91
2022/03/07 03:10:59;;;;;;;6.13;2.47;;;;;;;-145.14;100.00;70583.66;5010299;28;20185;-89
2022/03/07 03:13:25;;;;;;;3.03;2.73;;;;;;;-145.14;100.00;70583.66;5002585;28;20435;-88
2022/03/07 03:15:52;;;;;;;5.60;3.00;;;;;;;-145.14;100.00;70583.66;5000279;28;20448;-89
2022/03/07 03:18:19;;;;;;;5.70;2.60;;;;;;;-145.14;100.00;70583.66;5003976;28;20436;-89
2022/03/07 03:20:46;;;;;;;6.03;2.90;;;;;;;-145.14;100.00;70583.66;5005384;28;20464;-89
2022/03/07 03:23:12;;;;;;;3.77;2.33;;;;;;;-145.14;100.00;70583.66;5005161;28;20500;-90
2022/03/07 03:25:38;;;;;;;3.50;2.53;;;;;;;-145.14;100.00;70583.66;5005211;28;20523;-90
2022/03/07 03:28:04;;;;;;;6.93;2.80;;;;;;;-145.14;100.00;70583.66;5003932;28;20217;-90
2022/03/07 03:30:29;;;;;;;4.40;2.67;;;;;;;-145.14;100.00;70583.66;5004451;28;20177;-91
2022/03/07 03:32:55;;;;;;;4.07;2.80;;;;;;;-145.14;100.00;70583.66;5003530;28;20447;-91
2022/03/07 03:35:20;;;;;;;5.10;2.80;;;;;;;-145.14;100.00;70583.66;5008006;28;20208;-90
2022/03/07 03:37:46;;;;;;;2.60;2.40;;;;;;;-145.14;100.00;70583.66;5006709;28;20205;-89
2022/03/07 03:40:12;;;;;;;4.00;2.00;;;;;;;-145.14;100.00;70583.66;5002146;28;20252;-89
2022/03/07 03:42:39;;;;;;;5.27;2.63;;;;;;;-145.14;100.00;70583.66;5004263;28;20220;-89
2022/03/07 03:45:06;;;;;;;2.30;2.10;;;;;;;-145.14;100.00;70583.66;5005181;28;20543;-89
2022/03/07 03:47:32;;;;;;;4.90;2.40;;;;;;;-145.14;100.00;70583.66;5004849;28;20490;-90
2022/03/07 03:49:58;;;;;;;5.93;2.47;;;;;;;-145.14;100.00;70583.66;5007152;28;20431;-92
2022/03/07 03:52:24;;;;;;;4.17;2.13;;;;;;;-145.14;100.00;70583.66;5004557;28;20458;-90
2022/03/07 03:54:50;;;;;;;3.47;2.10;;;;;;;-145.14;100.00;70583.66;5000581;28;20246;-89
2022/03/07 03:57:16;;;;;;;2.97;2.00;;;;;;;-145.14;100.00;70583.66;5004201;28;20456;-90
2022/03/07 03:59:41;;;;;;;7.00;2.20;;;;;;;-145.14;100.00;70583.66;5004696;28;20440;-90
2022/03/07 04:02:07;;;;;;;2.30;2.00;;;;;;;-145.14;100.00;70583.66;5001828;28;20299;-91
2022/03/07 04:04:32;;;;;;;4.30;2.70;;;;;;;-145.14;100.00;70583.66;5008678;28;20212;-90
2022/03/07 04:06:58;;;;;;;5.00;2.20;;;;;;;-145.14;100.00;70583.66;5006670;28;20223;-91
2022/03/07 04:09:23;;;;;;;5.67;2.20;;;;;;;-145.14;100.00;70583.66;5005987;28;20287;-90
2022/03/07 04:11:54;;;;;;;6.37;2.40;;;;;;;-145.14;100.00;70583.66;5003592;28;20199;-89
2022/03/07 04:14:22;;;;;;;7.07;2.60;;;;;;;-145.14;100.00;70583.66;5005317;28;20244;-89
2022/03/07 04:16:48;;;;;;;2.33;2.10;;;;;;;-145.14;100.00;70583.66;4999406;28;20453;-88
2022/03/07 04:19:15;;;;;;;2.77;2.33;;;;;;;-145.14;100.00;70583.66;5005992;28;20440;-89
2022/03/07 04:21:41;;;;;;;3.40;2.20;;;;;;;-145.14;100.00;70583.66;5002305;28;20193;-89
2022/03/07 04:24:09;;;;;;;3.23;1.80;;;;;;;-145.14;100.00;70583.66;5004871;28;21302;-90
2022/03/07 04:26:34;;;;;;;3.13;2.17;;;;;;;-145.14;100.00;70583.66;5007447;28;20470;-88
2022/03/07 04:29:00;;;;;;;5.07;1.97;;;;;;;-145.14;100.00;70583.66;5003134;28;20676;-91
2022/03/07 04:31:26;;;;;;;4.40;1.90;;;;;;;-145.14;100.00;70583.66;5006327;28;20251;-90
2022/03/07 04:33:52;;;;;;;3.63;1.90;;;;;;;-145.14;100.00;70583.66;5003919;28;20177;-89
2022/03/07 04:36:21;;;;;;;3.00;2.20;;;;;;;-145.14;100.00;70583.66;5006011;28;20468;-87
2022/03/07 04:38:47;;;;;;;2.90;1.90;;;;;;;-145.14;100.00;70583.66;5007594;28;20440;-89
2022/03/07 04:41:13;;;;;;;2.73;2.03;;;;;;;-145.14;100.00;70583.66;5001775;28;20455;-91
2022/03/07 04:43:39;;;;;;;3.53;2.33;;;;;;;-145.14;100.00;70583.66;5005905;28;20444;-90
2022/03/07 04:46:09;;;;;;;4.40;2.13;;;;;;;-145.14;100.00;70583.66;5005529;28;20217;-90
2022/03/07 04:48:35;;;;;;;4.30;2.37;;;;;;;-145.14;100.00;70583.66;5004021;28;20177;-88
2022/03/07 04:51:01;;;;;;;4.30;2.60;;;;;;;-145.14;100.00;70583.66;5000004;28;20955;-91
2022/03/07 04:53:27;;;;;;;3.17;2.27;;;;;;;-145.14;100.00;70583.66;5003476;28;20443;-90
2022/03/07 04:55:53;;;;;;;2.33;1.90;;;;;;;-145.14;100.00;70583.66;5001758;28;20181;-90
2022/03/07 04:58:18;;;;;;;4.90;2.83;;;;;;;-145.14;100.00;70583.66;5003297;28;20185;-89
2022/03/07 05:00:44;;;;;;;4.10;1.80;;;;;;;-145.14;100.00;70583.66;4999568;28;20463;-91
2022/03/07 05:03:09;;;;;;;3.80;2.60;;;;;;;-145.14;100.00;70583.66;4999268;28;20189;-91
2022/03/07 05:05:35;;;;;;;5.23;2.20;;;;;;;-145.14;100.00;70583.66;5003782;28;20213;-89
2022/03/07 05:08:00;;;;;;;3.20;2.00;;;;;;;-145.14;100.00;70583.66;4999127;28;20205;-90
2022/03/07 05:10:26;;;;;;;3.20;2.07;;;;;;;-145.14;100.00;70583.66;5001087;28;20787;-88
2022/03/07 05:12:51;;;;;;;2.83;2.10;;;;;;;-145.14;100.00;70583.66;5001407;28;20638;-89
2022/03/07 05:15:17;;;;;;;3.97;2.00;;;;;;;-145.14;100.00;70583.66;5002777;28;20184;-91
2022/03/07 05:17:44;;;;;;;4.63;2.60;;;;;;;-145.14;100.00;70583.66;5003474;28;20220;-90
2022/03/07 05:20:11;;;;;;;4.37;2.47;;;;;;;-145.14;100.00;70583.66;5002634;28;20300;-91
2022/03/07 05:22:38;;;;;;;3.57;2.30;;;;;;;-145.14;100.00;70583.66;5015148;28;20531;-92
2022/03/07 05:25:04;;;;;;;3.53;2.53;;;;;;;-145.14;100.00;70583.66;5000896;28;20455;-90
2022/03/07 05:27:30;;;;;;;5.90;3.33;;;;;;;-145.14;100.00;70583.66;5000205;28;20471;-91
2022/03/07 05:29:55;;;;;;;4.10;2.60;;;;;;;-145.14;100.00;70583.66;5002067;28;20828;-91
2022/03/07 05:32:21;;;;;;;7.17;2.70;;;;;;;-145.14;100.00;70583.66;4997849;28;20192;-89
2022/03/07 05:34:47;;;;;;;3.20;2.57;;;;;;;-145.14;100.00;70583.66;4999959;28;20185;-86
2022/03/07 05:37:13;;;;;;;5.80;2.90;;;;;;;-145.14;100.00;70583.66;4991846;28;20526;-88
2022/03/07 05:39:38;;;;;;;5.23;3.27;;;;;;;-145.14;100.00;70583.66;4999643;28;20259;-90
2022/03/07 05:42:04;;;;;;;4.40;2.60;;;;;;;-145.14;100.00;70583.66;5004820;28;20255;-88
2022/03/07 05:44:30;;;;;;;5.50;2.90;;;;;;;-145.14;100.00;70583.66;5000133;28;20185;-89
2022/03/07 05:46:55;;;;;;;4.50;2.77;;;;;;;-145.14;100.00;70583.66;5002338;28;20558;-88
2022/03/07 05:49:21;;;;;;;6.40;3.30;;;;;;;-145.14;100.00;70583.66;4996508;28;20196;-88
2022/03/07 05:51:47;;;;;;;5.20;3.03;;;;;;;-145.14;100.00;70583.66;4998843;28;20184;-89
2022/03/07 05:54:13;;;;;;;6.00;3.00;;;;;;;-145.14;100.00;70583.66;5002248;28;20193;-90
2022/03/07 05:56:41;;;;;;;7.43;3.30;;;;;;;-145.14;100.00;70583.66;4999287;28;20688;-90
2022/03/07 05:59:07;;;;;;;6.33;2.67;;;;;;;-145.14;100.00;70583.66;4999379;28;20185;-90
2022/03/07 06:01:34;;;;;;;6.33;3.20;;;;;;;-145.14;100.00;70583.66;4992714;28;20468;-83
2022/03/07 06:03:59;;;;;;;4.60;2.60;;;;;;;-145.14;100.00;70583.66;4995517;28;20436;-83
2022/03/07 06:06:25;;;;;;;7.03;3.17;;;;;;;-145.14;100.00;70583.66;4990894;28;20475;-87
2022/03/07 06:08:51;;;;;;;4.87;3.13;;;;;;;-145.14;100.00;70583.66;4993372;28;20180;-88
2022/03/07 06:11:17;;;;;;;4.23;2.90;;;;;;;-145.14;100.00;70583.66;4995570;28;20196;-90
2022/03/07 06:13:42;;;;;;;5.67;2.80;;;;;;;-145.14;100.00;70583.66;5009090;28;20193;-91
2022/03/07 06:16:08;;;;;;;5.47;2.63;;;;;;;-145.14;100.00;70583.66;5005252;28;20470;-90
2022/03/07 06:18:34;;;;;;;5.20;2.60;;;;;;;-145.14;100.00;70583.66;4996024;28;20202;-91
2022/03/07 06:21:00;;;;;;;4.07;2.20;;;;;;;-145.14;100.00;70583.66;4989353;28;20464;-90
2022/03/07 06:23:25;;;;;;;7.90;3.30;;;;;;;-145.14;100.00;70583.66;4997805;28;20828;-90
2022/03/07 06:25:51;;;;;;;6.30;2.73;;;;;;;-145.14;100.00;70583.66;4999078;28;20200;-90
2022/03/07 06:28:16;;;;;;;5.40;3.20;;;;;;;-145.14;100.00;70583.66;4996381;28;20276;-90
2022/03/07 06:30:46;;;;;;;4.83;2.63;;;;;;;-145.14;100.00;70583.66;4998530;28;20193;-88
2022/03/07 06:33:13;;;;;;;3.17;2.70;;;;;;;-145.14;100.00;70583.66;4994716;28;20358;-89
2022/03/07 06:35:38;;;;;;;4.07;2.60;;;;;;;-145.14;100.00;70583.66;4997155;28;20534;-89
2022/03/07 06:38:03;;;;;;;4.80;2.70;;;;;;;-145.14;100.00;70583.66;5001484;28;20527;-90
2022/03/07 06:40:38;;;;;;;5.93;2.77;;;;;;;-145.14;100.00;70583.66;4999415;28;21006;-90
2022/03/07 06:43:04;;;;;;;4.80;2.57;;;;;;;-145.14;100.00;70583.66;4996933;28;20235;-91
2022/03/07 06:45:30;;;;;;;5.13;3.57;;;;;;;-145.14;100.00;70583.66;4992601;28;20443;-91
2022/03/07 06:47:56;;;;;;;4.37;3.97;;;;;;;-145.14;100.00;70583.66;5000637;28;20205;-88
2022/03/07 06:50:22;;;;;;;5.17;3.63;;;;;;;-145.14;100.00;70583.66;4999577;28;20957;-89
2022/03/07 06:52:47;;;;;;;8.63;4.60;;;;;;;-145.14;100.00;70583.66;5000290;28;20784;-89
2022/03/07 06:55:13;;;;;;;3.73;3.33;;;;;;;-145.14;100.00;70583.66;4995574;28;20217;-88
2022/03/07 06:57:41;;;;;;;4.20;3.80;;;;;;;-145.14;100.00;70583.66;4997905;28;20227;-91
2022/03/07 07:00:09;;;;;;;7.00;4.40;;;;;;;-145.14;100.00;70583.66;4989372;28;20439;-90
2022/03/07 07:02:36;;;;;;;6.37;4.77;;;;;;;-145.14;100.00;70583.66;4996045;28;20550;-88
2022/03/07 07:05:04;;;;;;;7.10;5.23;;;;;;;-145.14;100.00;70583.66;4994357;28;20436;-89
2022/03/07 07:07:30;;;;;;;5.77;4.50;;;;;;;-145.14;100.00;70583.66;4999581;28;20471;-89
2022/03/07 07:09:56;;;;;;;7.80;4.47;;;;;;;-145.14;100.00;70583.66;4994267;28;20433;-90
2022/03/07 07:12:22;;;;;;;9.47;4.40;;;;;;;-145.14;100.00;70583.66;4997060;28;20441;-88
2022/03/07 07:14:48;;;;;;;5.83;4.30;;;;;;;-145.14;100.00;70583.66;5000194;28;20196;-90
2022/03/07 07:17:13;;;;;;;5.03;4.17;;;;;;;-145.14;100.00;70583.66;4998989;28;20461;-89
2022/03/07 07:19:39;;;;;;;5.37;4.40;;;;;;;-145.14;100.00;70583.66;4997046;28;20208;-89
2022/03/07 07:22:05;;;;;;;14.60;4.77;;;;;;;-145.14;100.00;70583.66;4996589;28;20216;-90
2022/03/07 07:24:30;;;;;;;4.87;4.10;;;;;;;-145.14;100.00;70583.66;4999138;28;20196;-90
2022/03/07 07:26:56;;;;;;;4.97;4.47;;;;;;;-145.14;100.00;70583.66;5002274;28;20498;-89
2022/03/07 07:29:22;;;;;;;8.20;5.00;;;;;;;-145.14;100.00;70583.66;5001269;28;20322;-90
2022/03/07 07:31:47;;;;;;;5.77;4.27;;;;;;;-145.14;100.00;70583.66;4999458;28;20181;-87
2022/03/07 07:34:13;;;;;;;5.03;4.43;;;;;;;-145.14;100.00;70583.66;4990899;28;20409;-90
2022/03/07 07:36:39;;;;;;;6.10;4.40;;;;;;;-145.14;100.00;70583.66;4989122;28;20236;-90
2022/03/07 07:39:05;;;;;;;6.77;4.10;;;;;;;-145.14;100.00;70583.66;4989413;28;21984;-89
2022/03/07 07:41:30;;;;;;;4.27;3.47;;;;;;;-145.14;100.00;70583.66;5000787;28;20205;-89
2022/03/07 07:43:56;;;;;;;8.03;4.10;;;;;;;-145.14;100.00;70583.66;4996712;28;20704;-88
2022/03/07 07:46:22;;;;;;;5.17;3.47;;;;;;;-145.14;100.00;70583.66;4994923;28;20259;-87
2022/03/07 07:48:47;;;;;;;5.97;3.97;;;;;;;-145.14;100.00;70583.66;4993668;28;20199;-85
2022/03/07 07:51:13;;;;;;;8.43;4.70;;;;;;;-145.14;100.00;70583.66;4982525;28;20211;-86
2022/03/07 07:53:38;;;;;;;6.40;4.50;;;;;;;-145.14;100.00;70583.66;4987131;28;20272;-85
2022/03/07 07:56:04;;;;;;;9.30;4.00;;;;;;;-145.14;100.00;70583.66;4987560;28;20209;-86
2022/03/07 07:58:30;;;;;;;4.77;4.10;;;;;;;-145.14;100.00;70583.66;4989555;28;20223;-86
2022/03/07 08:00:55;;;;;;;12.20;3.93;;;;;;;-145.14;100.00;70583.66;4987292;28;20583;-86
2022/03/07 08:03:21;;;;;;;5.03;3.10;;;;;;;-145.14;100.00;70583.66;4988033;28;20336;-86
2022/03/07 08:05:48;;;;;;;6.70;4.10;;;;;;;-145.14;100.00;70583.66;4985383;28;20720;-86
2022/03/07 08:08:14;;;;;;;9.33;3.73;;;;;;;-145.14;100.00;70583.66;4990383;28;20188;-86
2022/03/07 08:10:40;;;;;;;13.33;4.03;;;;;;;-145.14;100.00;70583.66;4985276;28;20448;-84
2022/03/07 08:13:06;;;;;;;8.73;3.53;;;;;;;-145.14;100.00;70583.66;4986075;28;20444;-84
2022/03/07 08:15:31;;;;;;;7.13;3.40;;;;;;;-145.14;100.00;70583.66;4984159;28;20463;-83
2022/03/07 08:17:57;;;;;;;8.30;3.57;;;;;;;-145.14;100.00;70583.66;4982385;28;20205;-82
2022/03/07 08:20:23;;;;;;;3.73;3.00;;;;;;;-145.14;100.00;70583.66;4982497;28;20180;-82
2022/03/07 08:22:50;;;;;;;6.37;3.33;;;;;;;-145.14;100.00;70583.66;4988087;28;20448;-81
2022/03/07 08:25:16;;;;;;;7.63;3.07;;;;;;;-145.14;100.00;70583.66;4984433;28;20971;-82
2022/03/07 08:27:42;;;;;;;4.17;3.17;;;;;;;-145.14;100.00;70583.66;4989121;28;20459;-83
2022/03/07 08:30:10;;;;;;;4.90;3.00;;;;;;;-145.14;100.00;70583.66;4983570;28;21053;-82
2022/03/07 08:32:37;;;;;;;4.73;3.20;;;;;;;-145.14;100.00;70583.66;4987815;28;20596;-81
2022/03/07 08:35:05;;;;;;;5.73;2.87;;;;;;;-145.14;100.00;70583.66;4991100;28;20448;-82
2022/03/07 08:37:30;;;;;;;4.00;2.50;;;;;;;-145.14;100.00;70583.66;4990626;28;20984;-81
2022/03/07 08:39:56;;;;;;;4.00;2.90;;;;;;;-145.14;100.00;70583.66;4989695;28;20524;-80
2022/03/07 08:42:21;;;;;;;7.30;2.57;;;;;;;-145.14;100.00;70583.66;4996999;28;20262;-81
2022/03/07 08:44:47;;;;;;;5.03;2.20;;;;;;;-145.14;100.00;70583.66;4992922;28;20558;-80
2022/03/07 08:47:13;;;;;;;3.33;1.97;;;;;;;-145.14;100.00;70583.66;5000789;23;20323;-72
2022/03/07 08:49:39;;;;;;;2.90;1.83;;;;;;;-145.14;100.00;70583.66;4989687;28;20189;-72
2022/03/07 08:52:05;;;;;;;5.60;2.50;;;;;;;-145.14;100.00;70583.66;4985535;28;21181;-73
2022/03/07 08:54:31;;;;;;;5.70;2.10;;;;;;;-145.14;100.00;70583.66;4988096;28;20447;-72
2022/03/07 08:56:57;;;;;;;4.00;2.33;;;;;;;-145.14;100.00;70583.66;4983704;28;20941;-72
2022/03/07 08:59:24;;;;;;;3.50;2.13;;;;;;;-145.14;100.00;70583.66;4988351;28;20448;-71
2022/03/07 09:01:50;;;;;;;5.57;1.40;;;;;;;-145.14;100.00;70583.66;4981484;28;20585;-72
2022/03/07 09:04:15;;;;;;;7.70;1.57;;;;;;;-145.14;100.00;70583.66;4987680;28;20448;-71
2022/03/07 09:06:41;;;;;;;3.23;1.10;;;;;;;-145.14;100.00;70583.66;4987101;28;20346;-71
2022/03/07 09:09:07;;;;;;;5.53;1.47;;;;;;;-145.14;100.00;70583.66;4988919;28;20353;-71
2022/03/07 09:11:33;;;;;;;4.47;1.30;;;;;;;-145.14;100.00;70583.66;4983355;28;20509;-72
2022/03/07 09:13:58;;;;;;;3.20;1.23;;;;;;;-145.14;100.00;70583.66;4989440;28;21019;-71
2022/03/07 09:16:23;;;;;;;4.53;1.33;;;;;;;-145.14;100.00;70583.66;4979991;28;20189;-71
2022/03/07 09:18:49;;;;;;;5.07;1.50;;;;;;;-145.14;100.00;70583.66;4989135;28;20212;-71
2022/03/07 09:21:14;;;;;;;4.20;1.33;;;;;;;-145.14;100.00;70583.66;4995461;28;20208;-71
2022/03/07 09:23:40;;;;;;;2.60;1.37;;;;;;;-145.14;100.00;70583.66;4984611;28;20208;-71
2022/03/07 09:26:06;;;;;;;4.97;1.97;;;;;;;-145.14;100.00;70583.66;4990547;28;20189;-71
2022/03/07 09:28:33;;;;;;;5.27;1.77;;;;;;;-145.14;100.00;70583.66;4989635;28;20750;-71
2022/03/07 09:30:59;;;;;;;5.63;2.03;;;;;;;-145.14;100.00;70583.66;4984338;28;20458;-71
2022/03/07 09:33:25;;;;;;;6.23;1.97;;;;;;;-145.14;100.00;70583.66;4994123;28;20554;-71
2022/03/07 09:35:51;;;;;;;6.93;2.10;;;;;;;-145.14;100.00;70583.66;4988088;28;20520;-71
2022/03/07 09:38:16;;;;;;;4.10;1.40;;;;;;;-145.14;100.00;70583.66;4987023;28;20307;-71
2022/03/07 09:40:42;;;;;;;6.57;2.23;;;;;;;-145.14;100.00;70583.66;4984696;28;20471;-71
2022/03/07 09:43:08;;;;;;;4.83;1.70;;;;;;;-145.14;100.00;70583.66;4982836;28;20670;-71
2022/03/07 09:45:35;;;;;;;3.83;1.20;;;;;;;-145.14;100.00;70583.66;4984187;28;20193;-71
2022/03/07 09:48:01;;;;;;;5.13;1.83;;;;;;;-145.14;100.00;70583.66;4982156;28;20522;-71
2022/03/07 09:50:27;;;;;;;4.20;1.50;;;;;;;-145.14;100.00;70583.66;4989397;28;20975;-72
2022/03/07 09:52:54;;;;;;;7.60;1.93;;;;;;;-145.14;100.00;70583.66;4984256;28;20443;-71
2022/03/07 09:55:20;;;;;;;7.63;3.03;;;;;;;-145.14;100.00;70583.66;4982240;28;20456;-72
2022/03/07 09:57:47;;;;;;;4.90;1.87;;;;;;;-145.14;100.00;70583.66;4981841;28;20482;-72
2022/03/07 10:00:15;;;;;;;2.73;1.50;;;;;;;-145.14;100.00;70583.66;4987155;28;20443;-71
2022/03/07 10:02:50;;;;;;;7.40;2.30;;;;;;;-145.14;100.00;70583.66;4983994;28;20459;-71
2022/03/07 10:05:16;;;;;;;2.83;1.53;;;;;;;-145.14;100.00;70583.66;4989313;28;25170;-71
2022/03/07 10:07:44;;;;;;;2.17;1.63;;;;;;;-145.14;100.00;70583.66;4990525;28;25361;-70
2022/03/07 10:10:09;;;;;;;3.47;1.63;;;;;;;-145.14;100.00;70583.66;4986382;28;20192;-71
2022/03/07 10:12:48;;;;;;;3.37;1.70;;;;;;;-145.14;100.00;70583.66;4995072;28;25166;-71
2022/03/07 10:15:15;;;;;;;2.90;1.70;;;;;;;-145.14;100.00;70583.66;4993402;28;20203;-71
2022/03/07 10:17:52;;;;;;;4.17;1.30;;;;;;;-145.14;100.00;70583.66;4990249;28;25103;-72
2022/03/07 10:20:20;;;;;;;6.73;1.87;;;;;;;-145.14;100.00;70583.66;4986680;28;20845;-70
2022/03/07 10:22:48;;;;;;;3.30;1.90;;;;;;;-145.14;100.00;70583.66;4986916;28;25180;-70
2022/03/07 10:25:15;;;;;;;3.87;1.90;;;;;;;-145.14;100.00;70583.66;4987179;28;20447;-70
2022/03/07 10:27:44;;;;;;;2.53;1.23;;;;;;;-145.14;100.00;70583.66;4984424;28;20569;-71
2022/03/07 10:30:16;;;;;;;4.83;1.80;;;;;;;-145.14;100.00;70583.66;4992863;28;20609;-70
2022/03/07 10:32:43;;;;;;;2.40;1.60;;;;;;;-145.14;100.00;70583.66;4984921;28;20454;-71
2022/03/07 10:35:20;;;;;;;2.40;1.23;;;;;;;-145.14;100.00;70583.66;4987819;28;20526;-70
2022/03/07 10:37:45;;;;;;;3.20;1.47;;;;;;;-145.14;100.00;70583.66;4989984;28;25194;-71
2022/03/07 10:40:20;;;;;;;1.30;1.20;;;;;;;-145.14;100.00;70583.66;4990118;28;20527;-71
2022/03/07 10:42:46;;;;;;;2.23;1.23;;;;;;;-145.14;100.00;70583.66;4986599;28;25078;-70
2022/03/07 10:45:12;;;;;;;2.00;1.43;;;;;;;-145.14;100.00;70583.66;4982887;28;25110;-70
2022/03/07 10:47:38;;;;;;;3.00;1.20;;;;;;;-145.14;100.00;70583.66;4979512;28;25103;-70
2022/03/07 10:50:05;;;;;;;2.30;1.50;;;;;;;-145.14;100.00;70583.66;4985568;28;20940;-70
2022/03/07 10:52:37;;;;;;;5.60;1.87;;;;;;;-145.14;100.00;70583.66;4985950;28;20196;-70
2022/03/07 10:55:05;;;;;;;1.77;1.30;;;;;;;-145.14;100.00;70583.66;4994965;28;20436;-71
2022/03/07 10:57:38;;;;;;;2.73;1.10;;;;;;;-145.14;100.00;70583.66;4989761;28;20545;-70
2022/03/07 11:00:09;;;;;;;2.97;1.43;;;;;;;-145.14;100.00;70583.66;4984946;28;20530;-70
2022/03/07 11:02:40;;;;;;;1.70;1.00;;;;;;;-145.14;100.00;70583.66;4979762;28;20613;-71
2022/03/07 11:05:07;;;;;;;1.07;1.00;;;;;;;-145.14;100.00;70583.66;4986312;28;20756;-71
2022/03/07 11:07:36;;;;;;;2.20;1.57;;;;;;;-145.14;100.00;70583.66;4992856;28;20516;-71